createdAt,value
2018-03-17T00:00:35.584Z,11.45
2018-03-17T00:03:02.994Z,11.80
2018-03-17T00:05:30.409Z,11.65
2018-03-17T00:07:57.815Z,10.20
2018-03-17T00:10:25.220Z,12.55
2018-03-17T00:12:52.642Z,11.80
2018-03-17T00:15:20.046Z,13.00
2018-03-17T00:17:47.455Z,13.07
2018-03-17T00:20:14.872Z,11.80
2018-03-17T00:22:42.274Z,12.20
2018-03-17T00:25:09.679Z,12.37
2018-03-17T00:27:37.086Z,12.10
2018-03-17T00:30:04.486Z,11.55
2018-03-17T00:32:31.945Z,12.23
2018-03-17T00:34:59.306Z,11.50
2018-03-17T00:37:26.723Z,10.65
2018-03-17T00:39:54.131Z,11.05
2018-03-17T00:42:21.544Z,10.68
2018-03-17T00:44:48.954Z,11.02
2018-03-17T00:47:16.378Z,10.18
2018-03-17T00:49:43.782Z,10.95
2018-03-17T00:52:11.200Z,10.55
2018-03-17T00:54:38.611Z,10.63
2018-03-17T00:57:06.030Z,9.70
2018-03-17T00:59:33.436Z,10.98
2018-03-17T01:02:00.887Z,10.25
2018-03-17T01:04:28.271Z,10.45
2018-03-17T01:06:55.693Z,9.93
2018-03-17T01:09:23.089Z,11.35
2018-03-17T01:11:50.508Z,10.02
2018-03-17T01:14:17.915Z,11.00
2018-03-17T01:16:45.337Z,12.13
2018-03-17T01:19:12.746Z,13.10
2018-03-17T01:21:40.175Z,13.57
2018-03-17T01:24:07.578Z,13.27
2018-03-17T01:26:34.982Z,16.48
2018-03-17T01:29:02.405Z,15.82
2018-03-17T01:31:29.824Z,16.60
2018-03-17T01:33:57.240Z,17.33
2018-03-17T01:36:24.659Z,21.87
2018-03-17T01:38:52.068Z,24.25
2018-03-17T01:41:19.484Z,23.50
2018-03-17T01:43:46.927Z,17.30
2018-03-17T01:46:14.326Z,25.00
2018-03-17T01:48:41.742Z,22.30
2018-03-17T01:51:09.152Z,25.73
2018-03-17T01:53:36.579Z,25.92
2018-03-17T01:56:03.977Z,20.30
2018-03-17T01:58:31.394Z,22.50
2018-03-17T02:00:58.798Z,22.37
2018-03-17T02:03:26.214Z,23.17
2018-03-17T02:05:53.619Z,20.95
2018-03-17T02:08:21.025Z,23.42
2018-03-17T02:10:48.442Z,21.83
2018-03-17T02:13:15.863Z,20.05
2018-03-17T02:15:43.261Z,23.80
2018-03-17T02:18:10.682Z,21.67
2018-03-17T02:20:38.096Z,22.10
2018-03-17T02:23:05.513Z,22.00
2018-03-17T02:25:32.921Z,23.92
2018-03-17T02:28:00.333Z,23.42
2018-03-17T02:30:27.744Z,24.42
2018-03-17T02:32:55.159Z,19.00
2018-03-17T02:35:22.563Z,23.20
2018-03-17T02:37:49.974Z,24.42
2018-03-17T02:40:17.392Z,23.75
2018-03-17T02:42:44.810Z,24.92
2018-03-17T02:45:12.228Z,20.40
2018-03-17T02:47:39.643Z,29.12
2018-03-17T02:50:07.058Z,28.50
2018-03-17T02:52:34.517Z,27.58
2018-03-17T02:55:01.888Z,23.52
2018-03-17T02:57:29.295Z,26.50
2018-03-17T02:59:56.710Z,31.90
2018-03-17T03:02:24.114Z,30.77
2018-03-17T03:04:51.525Z,30.88
2018-03-17T03:07:18.936Z,28.45
2018-03-17T03:09:46.378Z,32.35
2018-03-17T03:12:13.761Z,26.95
2018-03-17T03:14:41.178Z,29.70
2018-03-17T03:17:08.582Z,29.87
2018-03-17T03:19:35.991Z,31.58
2018-03-17T03:22:03.391Z,34.95
2018-03-17T03:24:30.796Z,32.70
2018-03-17T03:26:58.209Z,29.73
2018-03-17T03:29:25.625Z,30.15
2018-03-17T03:31:53.029Z,32.60
2018-03-17T03:34:20.433Z,35.28
2018-03-17T03:36:47.849Z,38.05
2018-03-17T03:39:15.250Z,31.30
2018-03-17T03:41:42.694Z,27.80
2018-03-17T03:44:10.098Z,32.55
2018-03-17T03:46:37.514Z,30.60
2018-03-17T03:49:04.922Z,32.80
2018-03-17T03:51:32.328Z,35.35
2018-03-17T03:53:59.748Z,33.97
2018-03-17T03:56:27.169Z,30.25
2018-03-17T03:58:54.578Z,34.05
2018-03-17T04:01:22.006Z,35.10
2018-03-17T04:03:49.414Z,31.60
2018-03-17T04:06:16.838Z,33.15
2018-03-17T04:08:44.253Z,35.03
2018-03-17T04:11:11.666Z,35.67
2018-03-17T04:13:39.078Z,34.10
2018-03-17T04:16:06.508Z,26.42
2018-03-17T04:18:33.907Z,34.53
2018-03-17T04:21:01.324Z,36.83
2018-03-17T04:23:28.735Z,34.05
2018-03-17T04:25:56.141Z,33.80
2018-03-17T04:28:23.555Z,35.83
2018-03-17T04:30:50.969Z,29.37
2018-03-17T04:33:18.377Z,35.78
2018-03-17T04:35:45.790Z,30.08
2018-03-17T04:38:13.204Z,35.05
2018-03-17T04:40:40.623Z,32.47
2018-03-17T04:43:08.030Z,32.42
2018-03-17T04:45:35.450Z,30.40
2018-03-17T04:48:02.864Z,33.60
2018-03-17T04:50:30.274Z,37.38
2018-03-17T04:52:57.686Z,31.95
2018-03-17T04:55:25.094Z,34.08
2018-03-17T04:57:52.505Z,37.78
2018-03-17T05:00:19.909Z,32.53
2018-03-17T05:02:47.342Z,35.95
2018-03-17T05:05:14.737Z,34.95
2018-03-17T05:07:42.154Z,29.33
2018-03-17T05:10:09.560Z,38.88
2018-03-17T05:12:36.973Z,32.78
2018-03-17T05:15:05.301Z,35.85
2018-03-17T05:17:32.713Z,34.22
2018-03-17T05:20:00.110Z,35.55
2018-03-17T05:22:27.790Z,34.42
2018-03-17T05:24:55.202Z,29.90
2018-03-17T05:27:22.630Z,38.45
2018-03-17T05:29:50.034Z,32.60
2018-03-17T05:32:17.832Z,44.60
2018-03-17T05:34:45.237Z,26.40
2018-03-17T05:37:12.658Z,33.33
2018-03-17T05:39:40.064Z,36.95
2018-03-17T05:42:07.474Z,35.15
2018-03-17T05:44:34.878Z,34.03
2018-03-17T05:47:02.311Z,40.40
2018-03-17T05:49:29.731Z,37.38
2018-03-17T05:51:57.141Z,36.53
2018-03-17T05:54:24.559Z,39.28
2018-03-17T05:56:51.966Z,33.78
2018-03-17T05:59:19.394Z,40.50
2018-03-17T06:01:46.799Z,40.70
2018-03-17T06:04:14.218Z,26.48
2018-03-17T06:06:41.623Z,35.30
2018-03-17T06:09:09.034Z,36.30
2018-03-17T06:11:36.442Z,36.17
2018-03-17T06:14:03.923Z,41.45
2018-03-17T06:16:31.268Z,33.30
2018-03-17T06:18:58.686Z,32.08
2018-03-17T06:21:26.182Z,33.00
2018-03-17T06:23:53.667Z,38.55
2018-03-17T06:26:21.074Z,38.47
2018-03-17T06:28:48.491Z,29.42
2018-03-17T06:31:15.908Z,39.28
2018-03-17T06:33:43.301Z,34.97
2018-03-17T06:36:10.740Z,35.53
2018-03-17T06:38:38.150Z,37.55
2018-03-17T06:41:05.554Z,39.75
2018-03-17T06:43:32.966Z,40.38
2018-03-17T06:46:00.377Z,33.35
2018-03-17T06:48:27.832Z,33.53
2018-03-17T06:50:55.248Z,35.92
2018-03-17T06:53:22.687Z,42.40
2018-03-17T06:55:50.153Z,37.47
2018-03-17T06:58:17.722Z,37.40
2018-03-17T07:00:45.135Z,34.80
2018-03-17T07:03:12.544Z,38.33
2018-03-17T07:05:39.950Z,38.40
2018-03-17T07:08:07.354Z,44.00
2018-03-17T07:10:34.767Z,42.58
2018-03-17T07:13:02.182Z,38.95
2018-03-17T07:15:29.596Z,30.25
2018-03-17T07:17:56.990Z,38.47
2018-03-17T07:20:24.402Z,37.25
2018-03-17T07:22:51.972Z,34.65
2018-03-17T07:25:20.315Z,33.15
2018-03-17T07:27:47.679Z,43.28
2018-03-17T07:30:15.099Z,32.63
2018-03-17T07:32:42.507Z,34.97
2018-03-17T07:35:10.008Z,34.70
2018-03-17T07:37:37.420Z,36.65
2018-03-17T07:40:04.832Z,38.40
2018-03-17T07:42:32.286Z,36.95
2018-03-17T07:44:59.703Z,30.98
2018-03-17T07:47:27.116Z,39.22
2018-03-17T07:49:54.527Z,33.47
2018-03-17T07:52:21.940Z,34.45
2018-03-17T07:54:49.363Z,30.92
2018-03-17T07:57:16.770Z,34.28
2018-03-17T07:59:44.182Z,33.72
2018-03-17T08:02:11.586Z,36.13
2018-03-17T08:04:38.991Z,32.33
2018-03-17T08:07:06.407Z,32.80
2018-03-17T08:09:33.849Z,34.90
2018-03-17T08:12:01.410Z,36.40
2018-03-17T08:14:28.831Z,27.17
2018-03-17T08:16:56.243Z,38.55
2018-03-17T08:19:23.648Z,26.70
2018-03-17T08:21:51.074Z,39.10
2018-03-17T08:24:18.468Z,29.20
2018-03-17T08:26:45.878Z,30.73
2018-03-17T08:29:13.285Z,29.85
2018-03-17T08:31:40.707Z,34.13
2018-03-17T08:34:08.151Z,36.00
2018-03-17T08:36:35.555Z,31.40
2018-03-17T08:39:02.950Z,34.53
2018-03-17T08:41:30.364Z,37.72
2018-03-17T08:43:57.767Z,33.22
2018-03-17T08:46:25.188Z,39.28
2018-03-17T08:48:52.601Z,24.50
2018-03-17T08:51:20.270Z,27.15
2018-03-17T08:53:47.681Z,29.05
2018-03-17T08:56:15.090Z,28.75
2018-03-17T08:58:42.499Z,28.50
2018-03-17T09:01:09.914Z,29.05
2018-03-17T09:03:37.318Z,34.83
2018-03-17T09:06:04.750Z,35.25
2018-03-17T09:08:32.157Z,31.87
2018-03-17T09:10:59.567Z,30.00
2018-03-17T09:13:27.003Z,30.73
2018-03-17T09:15:54.412Z,30.98
2018-03-17T09:18:21.858Z,27.33
2018-03-17T09:20:49.266Z,27.87
2018-03-17T09:23:16.690Z,27.52
2018-03-17T09:25:44.100Z,33.63
2018-03-17T09:28:11.512Z,31.00
2018-03-17T09:30:38.925Z,32.15
2018-03-17T09:33:06.338Z,29.42
2018-03-17T09:35:33.737Z,30.15
2018-03-17T09:38:01.154Z,26.40
2018-03-17T09:40:28.666Z,27.70
2018-03-17T09:42:56.082Z,21.10
2018-03-17T09:45:23.494Z,30.27
2018-03-17T09:47:50.917Z,28.80
2018-03-17T09:50:18.321Z,25.52
2018-03-17T09:52:45.738Z,28.83
2018-03-17T09:55:13.141Z,29.70
2018-03-17T09:57:40.587Z,20.52
2018-03-17T10:00:07.995Z,26.65
2018-03-17T10:02:35.407Z,24.63
2018-03-17T10:05:02.820Z,33.63
2018-03-17T10:07:30.230Z,31.70
2018-03-17T10:09:57.647Z,28.12
2018-03-17T10:12:25.055Z,30.08
2018-03-17T10:14:52.465Z,24.52
2018-03-17T10:17:19.862Z,27.40
2018-03-17T10:19:47.274Z,29.40
2018-03-17T10:22:14.678Z,28.02
2018-03-17T10:24:42.085Z,26.80
2018-03-17T10:27:09.493Z,25.73
2018-03-17T10:29:36.999Z,29.17
2018-03-17T10:32:04.426Z,21.65
2018-03-17T10:34:31.919Z,26.92
2018-03-17T10:36:59.314Z,23.30
2018-03-17T10:39:26.727Z,25.02
2018-03-17T10:41:54.140Z,25.27
2018-03-17T10:44:21.546Z,23.30
2018-03-17T10:46:51.307Z,19.85
2018-03-17T10:49:18.718Z,23.83
2018-03-17T10:51:46.277Z,23.55
2018-03-17T10:54:13.711Z,24.52
2018-03-17T10:56:41.098Z,21.90
2018-03-17T10:59:08.552Z,24.52
2018-03-17T11:01:41.935Z,29.15
2018-03-17T11:04:09.441Z,21.35
2018-03-17T11:06:36.850Z,24.25
2018-03-17T11:09:04.266Z,20.10
2018-03-17T11:11:31.686Z,25.65
2018-03-17T11:13:59.099Z,17.62
2018-03-17T11:16:26.502Z,23.50
2018-03-17T11:18:53.916Z,25.20
2018-03-17T11:21:21.337Z,21.35
2018-03-17T11:23:48.848Z,23.38
2018-03-17T11:26:16.293Z,24.40
2018-03-17T11:28:43.699Z,16.20
2018-03-17T11:31:11.112Z,17.95
2018-03-17T11:33:38.530Z,21.60
2018-03-17T11:36:05.938Z,23.05
2018-03-17T11:38:33.346Z,17.75
2018-03-17T11:41:00.777Z,21.67
2018-03-17T11:43:28.190Z,22.33
2018-03-17T11:45:55.598Z,20.02
2018-03-17T11:48:23.032Z,19.15
2018-03-17T11:50:50.582Z,23.70
2018-03-17T11:53:18.220Z,23.25
2018-03-17T11:55:45.801Z,20.58
2018-03-17T11:58:13.214Z,21.10
2018-03-17T12:00:40.619Z,21.87
2018-03-17T12:03:08.039Z,22.37
2018-03-17T12:05:35.446Z,20.48
2018-03-17T12:08:02.867Z,19.02
2018-03-17T12:10:30.271Z,17.85
2018-03-17T12:12:57.684Z,23.00
2018-03-17T12:15:25.091Z,18.70
2018-03-17T12:17:52.505Z,18.55
2018-03-17T12:20:19.932Z,22.13
2018-03-17T12:22:47.343Z,23.73
2018-03-17T12:25:14.760Z,20.67
2018-03-17T12:27:42.177Z,18.02
2018-03-17T12:30:09.591Z,20.65
2018-03-17T12:32:37.007Z,19.33
2018-03-17T12:35:04.412Z,20.90
2018-03-17T12:37:31.823Z,19.73
2018-03-17T12:39:59.221Z,20.65
2018-03-17T12:42:26.639Z,23.20
2018-03-17T12:44:54.043Z,20.62
2018-03-17T12:47:21.462Z,16.65
2018-03-17T12:49:48.868Z,21.95
2018-03-17T12:52:16.299Z,21.60
2018-03-17T12:54:43.705Z,21.08
2018-03-17T12:57:11.105Z,18.15
2018-03-17T12:59:38.529Z,20.33
2018-03-17T13:02:05.936Z,20.58
2018-03-17T13:04:33.354Z,25.02
2018-03-17T13:07:00.758Z,24.87
2018-03-17T13:09:28.174Z,22.98
2018-03-17T13:11:55.576Z,24.52
2018-03-17T13:14:22.991Z,27.27
2018-03-17T13:16:50.396Z,21.65
2018-03-17T13:19:29.542Z,20.77
2018-03-17T13:21:56.945Z,20.88
2018-03-17T13:24:24.358Z,19.30
2018-03-17T13:27:03.519Z,24.05
2018-03-17T13:29:30.934Z,26.62
2018-03-17T13:31:58.348Z,18.27
2018-03-17T13:34:25.759Z,24.02
2018-03-17T13:37:05.118Z,25.08
2018-03-17T13:39:32.538Z,16.02
2018-03-17T13:41:59.944Z,25.60
2018-03-17T13:44:27.355Z,22.55
2018-03-17T13:46:54.771Z,21.50
2018-03-17T13:49:22.195Z,24.15
2018-03-17T13:51:49.589Z,21.42
2018-03-17T13:54:17.011Z,24.85
2018-03-17T13:56:44.417Z,26.40
2018-03-17T13:59:11.830Z,25.30
2018-03-17T14:01:39.240Z,25.90
2018-03-17T14:04:06.668Z,19.77
2018-03-17T14:06:34.081Z,18.20
2018-03-17T14:09:01.489Z,18.12
2018-03-17T14:11:28.902Z,23.50
2018-03-17T14:13:56.336Z,24.77
2018-03-17T14:16:23.748Z,27.25
2018-03-17T14:18:51.177Z,23.10
2018-03-17T14:21:18.618Z,22.48
2018-03-17T14:23:46.067Z,24.50
2018-03-17T14:26:13.456Z,19.77
2018-03-17T14:28:40.867Z,20.23
2018-03-17T14:31:08.283Z,29.08
2018-03-17T14:33:35.694Z,28.10
2018-03-17T14:36:03.119Z,24.25
2018-03-17T14:38:30.538Z,24.08
2018-03-17T14:40:57.995Z,20.17
2018-03-17T14:43:25.414Z,22.05
2018-03-17T14:45:52.836Z,26.52
2018-03-17T14:51:20.126Z,21.85
2018-03-17T14:53:47.555Z,27.13
2018-03-17T14:56:14.975Z,21.33
2018-03-17T14:58:42.528Z,22.33
2018-03-17T15:01:11.587Z,21.95
2018-03-17T15:03:39.024Z,27.98
2018-03-17T15:06:06.458Z,20.75
2018-03-17T15:08:33.900Z,28.60
2018-03-17T15:11:07.579Z,22.58
2018-03-17T15:13:42.813Z,23.38
2018-03-17T15:16:12.371Z,19.90
2018-03-17T15:18:45.680Z,20.02
2018-03-17T15:21:13.144Z,19.00
2018-03-17T15:23:40.563Z,27.70
2018-03-17T15:26:08.003Z,26.67
2018-03-17T15:28:36.886Z,27.92
2018-03-17T15:31:04.352Z,24.42
2018-03-17T15:33:31.798Z,21.87
2018-03-17T15:35:59.271Z,21.83
2018-03-17T15:38:26.698Z,24.85
2018-03-17T15:40:54.148Z,25.88
2018-03-17T15:43:21.554Z,26.42
2018-03-17T15:45:49.008Z,26.05
2018-03-17T15:48:16.440Z,24.12
2018-03-17T15:50:43.855Z,24.48
2018-03-17T15:53:11.287Z,27.55
2018-03-17T15:55:38.723Z,25.98
2018-03-17T15:58:06.174Z,21.02
2018-03-17T16:00:33.595Z,21.35
2018-03-17T16:03:01.024Z,19.33
2018-03-17T16:05:28.443Z,22.60
2018-03-17T16:07:55.876Z,19.27
2018-03-17T16:10:23.331Z,27.83
2018-03-17T16:12:50.787Z,24.58
2018-03-17T16:15:18.351Z,22.55
2018-03-17T16:17:45.735Z,24.80
2018-03-17T16:20:13.163Z,18.33
2018-03-17T16:22:40.590Z,25.00
2018-03-17T16:25:08.158Z,22.58
2018-03-17T16:27:35.577Z,22.67
2018-03-17T16:30:03.004Z,24.77
2018-03-17T16:32:30.559Z,23.62
2018-03-17T16:34:57.982Z,22.85
2018-03-17T16:37:25.403Z,23.77
2018-03-17T16:39:52.854Z,22.98
2018-03-17T16:42:20.300Z,17.62
2018-03-17T16:44:47.711Z,20.27
2018-03-17T16:47:15.152Z,15.00
2018-03-17T16:49:42.558Z,25.23
2018-03-17T16:52:10.016Z,24.35
2018-03-17T16:54:37.431Z,22.02
2018-03-17T16:57:04.858Z,17.75
2018-03-17T16:59:32.308Z,23.75
2018-03-17T17:01:59.730Z,23.70
2018-03-17T17:04:27.151Z,19.05
2018-03-17T17:06:54.583Z,24.52
2018-03-17T17:09:22.016Z,22.52
2018-03-17T17:11:49.430Z,24.92
2018-03-17T17:14:16.858Z,20.35
2018-03-17T17:16:44.288Z,25.00
2018-03-17T17:19:11.702Z,22.55
2018-03-17T17:21:39.125Z,23.67
2018-03-17T17:24:06.558Z,19.80
2018-03-17T17:26:33.976Z,26.20
2018-03-17T17:29:01.396Z,27.33
2018-03-17T17:31:28.822Z,26.37
2018-03-17T17:33:56.254Z,19.48
2018-03-17T17:36:23.679Z,20.90
2018-03-17T17:38:51.120Z,19.12
2018-03-17T17:41:18.591Z,19.92
2018-03-17T17:43:45.981Z,16.17
2018-03-17T17:46:13.398Z,24.60
2018-03-17T17:48:40.826Z,23.00
2018-03-17T17:51:08.255Z,22.00
2018-03-17T17:53:35.707Z,24.10
2018-03-17T17:56:03.141Z,30.20
2018-03-17T17:58:30.652Z,23.55
2018-03-17T18:00:58.040Z,19.70
2018-03-17T18:03:25.474Z,23.83
2018-03-17T18:05:52.927Z,21.20
2018-03-17T18:08:20.370Z,19.20
2018-03-17T18:10:47.798Z,19.80
2018-03-17T18:13:15.240Z,21.42
2018-03-17T18:15:42.684Z,19.33
2018-03-17T18:18:10.115Z,22.65
2018-03-17T18:20:37.550Z,18.15
2018-03-17T18:23:04.979Z,18.37
2018-03-17T18:25:32.413Z,24.08
2018-03-17T18:27:59.830Z,25.70
2018-03-17T18:30:27.287Z,15.52
2018-03-17T18:32:54.714Z,23.02
2018-03-17T18:35:22.144Z,19.98
2018-03-17T18:37:49.599Z,28.42
2018-03-17T18:40:17.030Z,22.65
2018-03-17T18:42:44.451Z,24.48
2018-03-17T18:45:11.883Z,21.08
2018-03-17T18:47:39.328Z,21.80
2018-03-17T18:50:06.758Z,23.75
2018-03-17T18:52:34.203Z,19.40
2018-03-17T18:55:01.619Z,22.52
2018-03-17T18:57:32.850Z,25.17
2018-03-17T19:00:00.285Z,20.12
2018-03-17T19:02:27.731Z,24.30
2018-03-17T19:04:55.172Z,26.33
2018-03-17T19:07:23.050Z,26.17
2018-03-17T19:09:50.616Z,21.73
2018-03-17T19:12:18.063Z,24.15
2018-03-17T19:14:45.684Z,23.02
2018-03-17T19:17:13.107Z,25.95
2018-03-17T19:19:40.531Z,22.00
2018-03-17T19:22:07.958Z,30.30
2018-03-17T19:24:35.392Z,22.70
2018-03-17T19:27:02.830Z,24.67
2018-03-17T19:29:30.280Z,27.20
2018-03-17T19:31:57.740Z,21.87
2018-03-17T19:34:25.190Z,19.92
2018-03-17T19:36:52.654Z,32.17
2018-03-17T19:39:20.070Z,27.15
2018-03-17T19:41:47.507Z,25.23
2018-03-17T19:44:14.973Z,22.10
2018-03-17T19:46:42.377Z,28.20
2018-03-17T19:49:11.336Z,22.85
2018-03-17T19:51:38.776Z,24.20
2018-03-17T19:54:06.279Z,19.62
2018-03-17T19:56:33.706Z,22.40
2018-03-17T19:59:01.152Z,21.00
2018-03-17T20:01:28.636Z,25.17
2018-03-17T20:03:56.022Z,27.73
2018-03-17T20:06:23.691Z,24.48
2018-03-17T20:08:51.111Z,27.80
2018-03-17T20:11:18.544Z,25.12
2018-03-17T20:13:45.983Z,27.92
2018-03-17T20:16:13.402Z,25.00
2018-03-17T20:18:40.830Z,26.73
2018-03-17T20:21:08.271Z,26.70
2018-03-17T20:23:35.713Z,25.65
2018-03-17T20:26:03.141Z,29.15
2018-03-17T20:28:30.707Z,28.40
2018-03-17T20:30:58.126Z,21.48
2018-03-17T20:33:25.571Z,22.73
2018-03-17T20:35:53.011Z,24.00
2018-03-17T20:38:20.443Z,26.55
2018-03-17T20:40:47.867Z,22.17
2018-03-17T20:43:15.311Z,18.75
2018-03-17T20:45:42.752Z,26.70
2018-03-17T20:48:10.200Z,27.25
2018-03-17T20:50:40.124Z,27.10
2018-03-17T20:53:07.575Z,25.92
2018-03-17T20:55:35.004Z,26.77
2018-03-17T20:58:02.500Z,23.62
2018-03-17T21:00:29.909Z,29.67
2018-03-17T21:02:57.386Z,26.08
2018-03-17T21:05:24.828Z,25.05
2018-03-17T21:07:52.294Z,25.52
2018-03-17T21:10:19.744Z,23.92
2018-03-17T21:12:50.904Z,20.08
2018-03-17T21:15:30.830Z,27.10
2018-03-17T21:17:58.287Z,21.75
2018-03-17T21:20:25.744Z,19.83
2018-03-17T21:22:53.186Z,25.45
2018-03-17T21:25:23.427Z,28.58
2018-03-17T21:27:56.229Z,33.92
2018-03-17T21:30:27.325Z,28.95
2018-03-17T21:32:54.859Z,29.52
2018-03-17T21:35:22.586Z,31.65
2018-03-17T21:37:50.032Z,30.92
2018-03-17T21:40:17.460Z,36.70
2018-03-17T21:42:47.234Z,33.85
2018-03-17T21:45:14.690Z,27.90
2018-03-17T21:47:42.119Z,27.13
2018-03-17T21:50:09.540Z,45.67
2018-03-17T21:52:36.961Z,41.13
2018-03-17T21:55:04.404Z,37.67
2018-03-17T21:57:31.929Z,39.88
2018-03-17T22:02:37.440Z,36.50
2018-03-17T22:05:04.875Z,37.85
2018-03-17T22:07:32.282Z,43.33
2018-03-17T22:09:59.698Z,39.40
2018-03-17T22:12:27.121Z,35.00
2018-03-17T22:14:54.547Z,37.67
2018-03-17T22:17:21.956Z,36.17
2018-03-17T22:19:49.377Z,36.85
2018-03-17T22:22:16.782Z,33.67
2018-03-17T22:24:44.206Z,31.95
2018-03-17T22:27:11.622Z,35.13
2018-03-17T22:29:39.042Z,30.90
2018-03-17T22:32:06.443Z,33.38
2018-03-17T22:34:33.854Z,34.47
2018-03-17T22:37:01.262Z,34.97
2018-03-17T22:39:28.695Z,36.47
2018-03-17T22:41:56.100Z,27.67
2018-03-17T22:44:23.513Z,35.40
2018-03-17T22:46:50.939Z,34.20
2018-03-17T22:49:18.361Z,29.02
2018-03-17T22:51:45.795Z,35.00
2018-03-17T22:54:13.206Z,34.42
2018-03-17T22:56:40.619Z,30.88
2018-03-17T22:59:08.028Z,34.53
2018-03-17T23:01:35.458Z,30.92
2018-03-17T23:04:02.868Z,34.35
2018-03-17T23:06:30.290Z,35.88
2018-03-17T23:08:57.756Z,36.33
2018-03-17T23:11:25.170Z,37.60
2018-03-17T23:13:52.573Z,38.83
2018-03-17T23:16:19.994Z,35.70
2018-03-17T23:18:47.578Z,32.28
2018-03-17T23:21:14.997Z,36.15
2018-03-17T23:23:42.416Z,32.75
2018-03-17T23:26:09.821Z,41.25
2018-03-17T23:28:37.237Z,32.80
2018-03-17T23:31:04.655Z,31.37
2018-03-17T23:33:32.087Z,38.80
2018-03-17T23:35:59.500Z,33.38
2018-03-17T23:38:26.914Z,34.42
2018-03-17T23:40:54.325Z,31.65
2018-03-17T23:43:21.746Z,34.50
2018-03-17T23:45:49.162Z,37.30
2018-03-17T23:48:16.582Z,31.58
2018-03-17T23:50:43.998Z,30.35
2018-03-17T23:53:11.417Z,30.83
2018-03-17T23:55:38.836Z,36.03
2018-03-17T23:58:06.254Z,36.97
